x

Bodega Bay - 48nm Nnw Of San Francisco, Ca (46013) Wave Buoy

9:50am - Sun 2nd Aug 2015 All times are PDT. -7 hours from GMT.

  • Sig Wave height 2.6ft
  • Peak Period 13s
  • Average Period 7s
  • Wind
    2mph, 4mph gusts
  • Sea Temp 59°f
  • Air Temp 59°f
  • Sea Pressure 1015.4mb
  • Bodega Bay - 48nm Nnw Of San Francisco, Ca
  • Bodega Bay - 48nm Nnw Of San Francisco, Ca

More Historic Weather Station data

Upgrade to MSW Pro to gain access to the past 30 days of data for over 8000 Wavebouys and Weather Stations around the globe.

Join Pro

Comparision Forecast

View Surf forecast
   
Sun 08/02 9:50am 2.5ft 13s 7s 2 4 mph 1015.4mb 59f 59f
8:50am 2.5ft 12s 7s 2 4 mph 1015.3mb 58f 59f
7:50am 2.5ft 13s 8s 4 7 mph 1015mb 58f 60f
6:50am 2.5ft 15s 8s 7
mph
1014.5mb 59f 61f
5:50am 2.5ft 14s 8s 4 7 mph 1014.1mb 59f 60f
4:50am 2.5ft 13s 8s 9
mph
1014mb 59f 60f
3:50am 2.5ft 14s 7s 7
mph
1014mb 59f 60f
2:50am 2.5ft 14s 8s 4 7 mph 1014.4mb 59f 61f
1:50am 2.5ft 14s 7s 7 9 mph 1014.4mb 59f 61f
12:50am 2.5ft 13s 7s 7 9 mph 1014.2mb 60f 61f
Sat 08/01 11:50pm 2.5ft 13s 8s 7
mph
1014.6mb 60f 61f
10:50pm 2.5ft 13s 7s 4 7 mph 1015mb 61f 61f
9:50pm 2.5ft 14s 8s 7
mph
1015mb 60f 62f
8:50pm 2.5ft 14s 8s 7 9 mph 1014.6mb 59f 62f
7:50pm 3ft 14s 8s 7 9 mph 1014.4mb 60f 62f
6:50pm 2.5ft 14s 8s 7 9 mph 1014.2mb 60f 62f
5:50pm 3ft 14s 8s 7
mph
1014.1mb 61f 62f
4:50pm 2.5ft 14s 8s 7
mph
1014.3mb 61f 62f
3:50pm 3ft 15s 8s 4
mph
1014.8mb 62f 63f
2:50pm 2.5ft 13s 9s 2
mph
1015.2mb 60f 63f
1:50pm 2.5ft 14s 8s  -  2 mph 1015.8mb 60f 62f
12:50pm 2.5ft 15s 9s 2 4 mph 1016.1mb 60f 60f
11:50am 2.5ft 13s 8s 4 7 mph 1016.4mb 59f 59f
10:50am 2.5ft 14s 8s 4 7 mph 1016.5mb 59f 58f
9:50am 2.5ft 15s 9s 4 7 mph 1016.7mb 59f 58f
8:50am 3ft 14s 9s 4
mph
1016.7mb 59f 58f
7:50am 2.5ft 14s 8s  -  2 mph 1016.3mb 58f 60f
6:50am 2.5ft 13s 9s 2 4 mph 1016.2mb 58f 60f
5:50am 3.5ft 14s 10s 2 4 mph 1015.6mb 58f 60f
4:50am 3ft 14s 9s 4 7 mph 1015.2mb 58f 60f
3:50am 3ft 14s 9s 2
mph
1015.4mb 58f 60f
2:50am 2.5ft 14s 9s 4 7 mph 1014.8mb 58f 60f
1:50am 3ft 14s 9s 7 9 mph 1015mb 58f 60f
12:50am 3ft 14s 9s 4 7 mph 1015.4mb 58f 60f
Fri 07/31 11:50pm 3ft 14s 9s 4 7 mph 1015.4mb 58f 60f
10:50pm 3ft 14s 9s 7 9 mph 1015.5mb 57f 60f
9:50pm 3.5ft 14s 9s 4 7 mph 1015.7mb 58f 60f
8:50pm 3ft 14s 8s 4
mph
1015.6mb 58f 59f
7:50pm 3ft 13s 8s 2 4 mph 1015.4mb 59f 59f
6:50pm 3ft 14s 9s 4
mph
1015.1mb 59f 60f
5:50pm 3ft 14s 9s 4
mph
1015.5mb 59f 60f
4:50pm 3.5ft 14s 9s 2
mph
1016mb 59f 60f
3:50pm 3.5ft 14s 9s 4
mph
1016.4mb 60f 60f
2:50pm 3.5ft 14s 9s 2 4 mph 1016.6mb 59f 60f
1:50pm 3.5ft 14s 9s  -  2 mph 1016.5mb 59f 60f
12:50pm 3.5ft 15s 9s 2
mph
1016.5mb 58f 59f
11:50am 3ft 16s 8s 2
mph
1016.7mb 58f 58f
10:50am 3.5ft 14s 9s 2
mph
1017.1mb 57f 58f
9:50am 3.5ft 15s 8s 2
mph
1017mb 57f 57f
8:50am 3.5ft 15s 9s 2
mph
1017mb 57f 58f
7:50am 3.5ft 15s 9s 7 9 mph 1016.9mb 57f 58f
6:50am 3.5ft 15s 9s 4 9 mph 1016.3mb 57f 58f
5:50am 3.5ft 15s 9s 2 4 mph 1016mb 56f 57f
4:50am 3.5ft 14s 9s 2 4 mph 1016mb 56f 57f
3:50am 3.5ft 15s 9s 2 4 mph 1015.9mb 55f 57f
2:50am 3.5ft 15s 9s 4 7 mph 1016mb 55f 57f
1:50am 3.5ft 15s 8s 4 7 mph 1016.1mb 55f 57f
12:50am 3.5ft 15s 9s 4 7 mph 1016.2mb 55f 58f
Thu 07/30 11:50pm 3ft 14s 8s 4
mph
1016.6mb 55f 58f
10:50pm 3.5ft 14s 9s 2 4 mph 1016.5mb 55f 59f
9:50pm 3.5ft 15s 9s 4 7 mph 1016.4mb 56f 59f
8:50pm 3.5ft 15s 10s 9 11 mph 1015.8mb 56f 59f
7:50pm 3.5ft 15s 10s 9
mph
1015.9mb 55f 59f
6:50pm 3.5ft 15s 9s 7 9 mph 1015.7mb 55f 60f
5:50pm 3.5ft 15s 9s 7
mph
1015.8mb 56f 60f
4:50pm 3.5ft 15s 9s 7 9 mph 1016.2mb 57f 60f
3:50pm 3.5ft 15s 9s 4 7 mph 1016.5mb 56f 60f
2:50pm 3.5ft 16s 9s 2
mph
1017.2mb 56f 61f
1:50pm 3.5ft 15s 9s 2
mph
1017.5mb 56f 59f
12:50pm 4ft 15s 9s 2 4 mph 1017.8mb 55f 58f
11:50am 3.5ft 15s 8s 4
mph
1018mb 55f 57f
10:50am 3.5ft 15s 9s 4
mph
1017.8mb 55f 57f
9:50am 4ft 15s 9s 4
mph
1017.6mb 54f 56f
8:50am 3.5ft 15s 8s 4 7 mph 1017.3mb 54f 56f
7:50am 3.5ft 15s 8s 4 7 mph 1016.8mb 54f 56f
6:50am 4ft 15s 8s 4 7 mph 1016.1mb 54f 56f
5:50am 3.5ft 15s 9s 4
mph
1015.7mb 54f 56f
4:50am 4ft 15s 9s 7
mph
1015.3mb 54f 56f
3:50am 3.5ft 15s 8s 4 7 mph 1015.1mb 54f 56f
2:50am 4ft 15s 8s 7
mph
1015.1mb 54f 56f
1:50am 4ft 15s 9s 7
mph
1015mb 54f 56f
12:50am 4.5ft 15s 9s 7 9 mph 1014.9mb 54f 56f
Wed 07/29 11:50pm 4.5ft 15s 9s 4 7 mph 1014.5mb 54f 56f
10:50pm 4.5ft 16s 8s 4
mph
1014.3mb 54f 57f
9:50pm 4.5ft 9s 8s 2
mph
1014mb 54f 57f
8:50pm 4.5ft 9s 8s  -  2 mph 1013.9mb 55f 57f
7:50pm 4.5ft 15s 8s 2 4 mph 1013.6mb 55f 57f
6:50pm 4ft 16s 8s 2 4 mph 1013.6mb 55f 58f